Adrian Maersk — OXLD2 — position and weather

sailwx.info

Track history (hours):
 
Tides and Currents Weather Stations Pressure Air Temp Water Temp Dewpoint Dewpoint Depression Visibility Wind Speed Wind Dir Waves Ship Positions

Adrian Maersk

Last reported at 2018-Jan-12 04:47 UTC. Time now 2018-Jan-20 11:05 UTC.
Position N 38°55' E 121°56'.
Warning: this ship's position is 8 days out of date.

Length 349 m; draft 10.5 m.

Type: Ship (hazmat cat A). MMSI: 220245000.

Date/timePositionNaut miles runAvg speedWind from/ knotsBaromVisibWave heightAir tempDewpointWater temp
2018-Jan-12 04:47N 38°55' E 121°56'5 4.5
2018-Jan-12 03:43N 38°51' E 121°57'1 4.3
2018-Jan-12 03:30N 38°50' E 121°57'8 8.5
2018-Jan-12 02:37N 38°42' E 121°57'214.7
2018-Jan-12 02:30N 38°40' E 121°57'  
2018-Jan-09 05:17N 24°13' E 118°46'414.3
2018-Jan-09 05:00N 24°11' E 118°42'814.3
2018-Jan-09 04:28N 24°06' E 118°35'714.7
2018-Jan-09 04:00N 24°01' E 118°30'714.2
2018-Jan-09 03:30N 23°56' E 118°25'813.3
2018-Jan-09 02:52N 23°51' E 118°17'  
2018-Jan-04 10:05N 01°15' E 104°01'213.5
2018-Jan-04 09:55N 01°14' E 103°58'3 7.6
2018-Jan-04 09:30N 01°16' E 103°56'1 1.0
2018-Jan-04 08:58N 01°17' E 103°56'0 0.0
2018-Jan-04 08:20N 01°17' E 103°56'0 0.0
2018-Jan-04 07:59N 01°17' E 103°56'0 0.0
2018-Jan-04 07:26N 01°17' E 103°56'0 0.1
2018-Jan-04 06:50N 01°17' E 103°56'0 0.3
2018-Jan-04 06:20N 01°16' E 103°56'0 0.1
2018-Jan-04 04:02N 01°16' E 103°56'0 0.0
2018-Jan-03 13:53N 01°17' E 103°56'0 0.1
2018-Jan-03 11:50N 01°17' E 103°56'0 0.0
2018-Jan-03 11:23N 01°17' E 103°56'0 0.1
2018-Jan-03 10:32N 01°17' E 103°56'0 0.0
2018-Jan-03 09:17N 01°17' E 103°56'0 0.0
2018-Jan-03 08:17N 01°17' E 103°56'0 0.1
2018-Jan-03 07:59N 01°17' E 103°56'2 3.7
2018-Jan-03 07:30N 01°15' E 103°56'5 9.6
2018-Jan-03 06:59N 01°12' E 103°52'510.0
2018-Jan-03 06:30N 01°14' E 103°47'2 3.2
2018-Jan-03 06:00N 01°16' E 103°47'0 0.0
2018-Jan-03 05:30N 01°16' E 103°47'0 0.0
2018-Jan-03 04:48N 01°16' E 103°47'0 0.0
2018-Jan-03 04:30N 01°16' E 103°47'0 0.0
2018-Jan-03 03:57N 01°16' E 103°47'0 0.0
2018-Jan-03 03:21N 01°16' E 103°47'0 0.0
2018-Jan-03 03:00N 01°16' E 103°47'0 0.0
2018-Jan-03 02:30N 01°16' E 103°47'0 0.0
2018-Jan-03 02:00N 01°16' E 103°47'0 0.0
2018-Jan-03 01:27N 01°16' E 103°47'0 0.0
2018-Jan-03 00:48N 01°16' E 103°47'0 0.0
2018-Jan-03 00:18N 01°16' E 103°47'0 0.0
2018-Jan-02 23:57N 01°16' E 103°47'0 0.0
2018-Jan-02 23:30N 01°16' E 103°47'0 0.0
2018-Jan-02 22:57N 01°16' E 103°47'0 0.0
2018-Jan-02 22:30N 01°16' E 103°47'0 0.0
2018-Jan-02 22:00N 01°16' E 103°47'0 0.0
2018-Jan-02 21:30N 01°16' E 103°47'0 0.0
2018-Jan-02 21:00N 01°16' E 103°47'0 0.0
2018-Jan-02 20:24N 01°16' E 103°47'0 0.0
2018-Jan-02 20:00N 01°16' E 103°47'0 0.0
2018-Jan-02 19:30N 01°16' E 103°47'0 0.0
2018-Jan-02 18:54N 01°16' E 103°47'0 0.0
2018-Jan-02 18:30N 01°16' E 103°47'0 0.0
2018-Jan-02 17:54N 01°16' E 103°47'0 0.0
2018-Jan-02 17:28N 01°16' E 103°47'0 0.0
2018-Jan-02 16:55N 01°16' E 103°47'0 0.0
2018-Jan-02 16:28N 01°16' E 103°47'0 0.0
2018-Jan-02 15:58N 01°16' E 103°47'0 0.0
2018-Jan-02 15:28N 01°16' E 103°47'0 0.0
2018-Jan-02 14:52N 01°16' E 103°47'0 0.0
2018-Jan-02 14:28N 01°16' E 103°47'0 0.0
2018-Jan-02 13:55N 01°16' E 103°47'0 0.0
2018-Jan-02 13:28N 01°16' E 103°47'0 0.0
2018-Jan-02 12:58N 01°16' E 103°47'0 0.0
2018-Jan-02 12:28N 01°16' E 103°47'0 0.0
2018-Jan-02 11:58N 01°16' E 103°47'0 0.0
2018-Jan-02 11:25N 01°16' E 103°47'0 0.0
2018-Jan-02 11:00N 01°16' E 103°47'1 1.9
2018-Jan-02 10:30N 01°15' E 103°47'4 8.9
2018-Jan-02 10:00N 01°14' E 103°43'612.6
2018-Jan-02 09:31N 01°12' E 103°36'1111.0
2018-Jan-02 08:30N 01°11' E 103°25'916.7
2018-Jan-02 07:59N 01°16' E 103°18'  
Track history (hours):
 
Tides and Currents Weather Stations Pressure Air Temp Water Temp Dewpoint Dewpoint Depression Visibility Wind Speed Wind Dir Waves Ship Positions

Adrian Maersk

Last reported at 2018-Jan-12 04:47 UTC. Time now 2018-Jan-20 11:05 UTC.
Position N 38°55' E 121°56'.
Warning: this ship's position is 8 days out of date.

Length 349 m; draft 10.5 m.

Type: Ship (hazmat cat A). MMSI: 220245000.

Date/timePositionNaut miles runAvg speedWind from/ knotsBaromVisibWave heightAir tempDewpointWater temp
2018-Jan-12 04:47N 38°55' E 121°56'5 4.5
2018-Jan-12 03:43N 38°51' E 121°57'1 4.3
2018-Jan-12 03:30N 38°50' E 121°57'8 8.5
2018-Jan-12 02:37N 38°42' E 121°57'214.7
2018-Jan-12 02:30N 38°40' E 121°57'  
2018-Jan-09 05:17N 24°13' E 118°46'414.3
2018-Jan-09 05:00N 24°11' E 118°42'814.3
2018-Jan-09 04:28N 24°06' E 118°35'714.7
2018-Jan-09 04:00N 24°01' E 118°30'714.2
2018-Jan-09 03:30N 23°56' E 118°25'813.3
2018-Jan-09 02:52N 23°51' E 118°17'  
2018-Jan-04 10:05N 01°15' E 104°01'213.5
2018-Jan-04 09:55N 01°14' E 103°58'3 7.6
2018-Jan-04 09:30N 01°16' E 103°56'1 1.0
2018-Jan-04 08:58N 01°17' E 103°56'0 0.0
2018-Jan-04 08:20N 01°17' E 103°56'0 0.0
2018-Jan-04 07:59N 01°17' E 103°56'0 0.0
2018-Jan-04 07:26N 01°17' E 103°56'0 0.1
2018-Jan-04 06:50N 01°17' E 103°56'0 0.3
2018-Jan-04 06:20N 01°16' E 103°56'0 0.1
2018-Jan-04 04:02N 01°16' E 103°56'0 0.0
2018-Jan-03 13:53N 01°17' E 103°56'0 0.1
2018-Jan-03 11:50N 01°17' E 103°56'0 0.0
2018-Jan-03 11:23N 01°17' E 103°56'0 0.1
2018-Jan-03 10:32N 01°17' E 103°56'0 0.0
2018-Jan-03 09:17N 01°17' E 103°56'0 0.0
2018-Jan-03 08:17N 01°17' E 103°56'0 0.1
2018-Jan-03 07:59N 01°17' E 103°56'2 3.7
2018-Jan-03 07:30N 01°15' E 103°56'5 9.6
2018-Jan-03 06:59N 01°12' E 103°52'510.0
2018-Jan-03 06:30N 01°14' E 103°47'2 3.2
2018-Jan-03 06:00N 01°16' E 103°47'0 0.0
2018-Jan-03 05:30N 01°16' E 103°47'0 0.0
2018-Jan-03 04:48N 01°16' E 103°47'0 0.0
2018-Jan-03 04:30N 01°16' E 103°47'0 0.0
2018-Jan-03 03:57N 01°16' E 103°47'0 0.0
2018-Jan-03 03:21N 01°16' E 103°47'0 0.0
2018-Jan-03 03:00N 01°16' E 103°47'0 0.0
2018-Jan-03 02:30N 01°16' E 103°47'0 0.0
2018-Jan-03 02:00N 01°16' E 103°47'0 0.0
2018-Jan-03 01:27N 01°16' E 103°47'0 0.0
2018-Jan-03 00:48N 01°16' E 103°47'0 0.0
2018-Jan-03 00:18N 01°16' E 103°47'0 0.0
2018-Jan-02 23:57N 01°16' E 103°47'0 0.0
2018-Jan-02 23:30N 01°16' E 103°47'0 0.0
2018-Jan-02 22:57N 01°16' E 103°47'0 0.0
2018-Jan-02 22:30N 01°16' E 103°47'0 0.0
2018-Jan-02 22:00N 01°16' E 103°47'0 0.0
2018-Jan-02 21:30N 01°16' E 103°47'0 0.0
2018-Jan-02 21:00N 01°16' E 103°47'0 0.0
2018-Jan-02 20:24N 01°16' E 103°47'0 0.0
2018-Jan-02 20:00N 01°16' E 103°47'0 0.0
2018-Jan-02 19:30N 01°16' E 103°47'0 0.0
2018-Jan-02 18:54N 01°16' E 103°47'0 0.0
2018-Jan-02 18:30N 01°16' E 103°47'0 0.0
2018-Jan-02 17:54N 01°16' E 103°47'0 0.0
2018-Jan-02 17:28N 01°16' E 103°47'0 0.0
2018-Jan-02 16:55N 01°16' E 103°47'0 0.0
2018-Jan-02 16:28N 01°16' E 103°47'0 0.0
2018-Jan-02 15:58N 01°16' E 103°47'0 0.0
2018-Jan-02 15:28N 01°16' E 103°47'0 0.0
2018-Jan-02 14:52N 01°16' E 103°47'0 0.0
2018-Jan-02 14:28N 01°16' E 103°47'0 0.0
2018-Jan-02 13:55N 01°16' E 103°47'0 0.0
2018-Jan-02 13:28N 01°16' E 103°47'0 0.0
2018-Jan-02 12:58N 01°16' E 103°47'0 0.0
2018-Jan-02 12:28N 01°16' E 103°47'0 0.0
2018-Jan-02 11:58N 01°16' E 103°47'0 0.0
2018-Jan-02 11:25N 01°16' E 103°47'0 0.0
2018-Jan-02 11:00N 01°16' E 103°47'1 1.9
2018-Jan-02 10:30N 01°15' E 103°47'4 8.9
2018-Jan-02 10:00N 01°14' E 103°43'612.6
2018-Jan-02 09:31N 01°12' E 103°36'1111.0
2018-Jan-02 08:30N 01°11' E 103°25'916.7
2018-Jan-02 07:59N 01°16' E 103°18'  

Dump ship's entire track history